createdAt,value
2023-03-10T00:01:16.664Z,6.32
2023-03-10T00:03:43.956Z,4.93
2023-03-10T00:06:14.371Z,5.85
2023-03-10T00:08:41.380Z,5.20
2023-03-10T00:11:08.401Z,6.18
2023-03-10T00:13:35.367Z,6.22
2023-03-10T00:16:02.344Z,6.15
2023-03-10T00:18:29.181Z,8.73
2023-03-10T00:20:56.029Z,6.47
2023-03-10T00:23:23.423Z,4.97
2023-03-10T00:25:58.701Z,5.53
2023-03-10T00:28:26.886Z,6.70
2023-03-10T00:31:06.260Z,6.07
2023-03-10T00:33:34.929Z,3.95
2023-03-10T00:36:09.316Z,4.45
2023-03-10T00:38:37.100Z,4.13
2023-03-10T00:41:08.633Z,6.88
2023-03-10T00:43:36.443Z,4.90
2023-03-10T00:46:04.167Z,4.97
2023-03-10T00:48:31.645Z,5.53
2023-03-10T00:50:59.173Z,4.20
2023-03-10T00:53:26.729Z,4.00
2023-03-10T00:56:23.070Z,4.70
2023-03-10T00:58:58.638Z,3.35
2023-03-10T01:01:37.596Z,3.22
2023-03-10T01:04:08.474Z,4.40
2023-03-10T01:06:36.581Z,6.68
2023-03-10T01:09:04.493Z,3.67
2023-03-10T01:11:32.361Z,4.53
2023-03-10T01:14:03.090Z,5.28
2023-03-10T01:16:30.167Z,4.68
2023-03-10T01:18:58.329Z,3.55
2023-03-10T01:21:30.820Z,4.82
2023-03-10T01:23:57.976Z,3.78
2023-03-10T01:26:24.810Z,3.58
2023-03-10T01:28:51.712Z,4.70
2023-03-10T01:31:19.150Z,4.22
2023-03-10T01:33:46.872Z,5.20
2023-03-10T01:36:17.831Z,4.57
2023-03-10T01:38:47.322Z,2.35
2023-03-10T01:41:15.804Z,5.45
2023-03-10T01:43:46.135Z,3.70
2023-03-10T01:46:31.870Z,1.52
2023-03-10T01:49:38.672Z,3.35
2023-03-10T01:52:21.073Z,4.18
2023-03-10T01:54:56.113Z,4.32
2023-03-10T01:57:27.651Z,5.22
2023-03-10T01:59:55.625Z,3.58
2023-03-10T02:02:24.696Z,4.03
2023-03-10T02:04:53.074Z,3.05
2023-03-10T02:07:27.852Z,1.85
2023-03-10T02:09:55.999Z,3.22
2023-03-10T02:12:22.821Z,5.90
2023-03-10T02:14:51.625Z,1.77
2023-03-10T02:17:22.102Z,4.05
2023-03-10T02:20:13.335Z,1.77
2023-03-10T02:22:40.479Z,2.83
2023-03-10T02:25:22.852Z,4.82
2023-03-10T02:27:50.388Z,2.00
2023-03-10T02:30:25.045Z,3.63
2023-03-10T02:32:57.639Z,2.70
2023-03-10T02:35:24.854Z,1.33
2023-03-10T02:37:59.468Z,1.55
2023-03-10T02:40:40.413Z,1.95
2023-03-10T02:43:18.282Z,1.50
2023-03-10T02:45:49.117Z,3.33
2023-03-10T02:48:28.422Z,0.95
2023-03-10T02:50:57.836Z,1.08
2023-03-10T02:53:29.607Z,1.88
2023-03-10T02:55:58.224Z,2.78
2023-03-10T02:58:28.031Z,3.00
2023-03-10T03:00:56.041Z,2.00
2023-03-10T03:03:23.595Z,1.73
2023-03-10T03:05:51.401Z,1.77
2023-03-10T03:08:20.096Z,3.25
2023-03-10T03:10:48.624Z,1.02
2023-03-10T03:13:15.633Z,2.83
2023-03-10T03:15:42.988Z,2.33
2023-03-10T03:18:10.343Z,2.15
2023-03-10T03:20:40.579Z,1.17
2023-03-10T03:23:08.297Z,1.08
2023-03-10T03:25:38.487Z,1.20
2023-03-10T03:28:08.202Z,1.67
2023-03-10T03:30:36.860Z,1.50
2023-03-10T03:33:06.318Z,2.03
2023-03-10T03:35:36.577Z,1.10
2023-03-10T03:38:05.455Z,0.98
2023-03-10T03:40:34.788Z,0.43
2023-03-10T03:43:04.658Z,1.48
2023-03-10T03:45:33.199Z,1.42
2023-03-10T03:48:01.234Z,2.17
2023-03-10T03:53:04.231Z,1.58
2023-03-10T03:55:31.474Z,1.30
2023-03-10T03:57:59.067Z,1.55
2023-03-10T04:00:26.209Z,0.43
2023-03-10T04:03:05.142Z,3.17
2023-03-10T04:05:33.169Z,1.02
2023-03-10T04:08:00.921Z,1.73
2023-03-10T04:10:29.433Z,1.33
2023-03-10T04:12:57.074Z,0.75
2023-03-10T04:15:25.099Z,0.55
2023-03-10T04:17:52.116Z,1.40
2023-03-10T04:20:19.128Z,0.60
2023-03-10T04:22:49.388Z,0.68
2023-03-10T04:25:17.321Z,1.17
2023-03-10T04:27:45.118Z,0.63
2023-03-10T04:30:14.162Z,0.60
2023-03-10T04:32:47.206Z,1.70
2023-03-10T04:35:15.960Z,1.10
2023-03-10T04:37:44.706Z,0.98
2023-03-10T04:40:13.644Z,1.17
2023-03-10T04:42:41.649Z,1.67
2023-03-10T04:45:09.722Z,4.75
2023-03-10T04:47:36.719Z,1.33
2023-03-10T04:50:05.557Z,1.50
2023-03-10T04:52:32.489Z,2.42
2023-03-10T04:54:59.512Z,0.82
2023-03-10T04:57:26.347Z,0.60
2023-03-10T04:59:54.172Z,0.90
2023-03-10T05:02:23.389Z,0.52
2023-03-10T05:04:50.892Z,1.48
2023-03-10T05:07:17.909Z,0.35
2023-03-10T05:09:48.184Z,1.77
2023-03-10T05:12:15.244Z,1.58
2023-03-10T05:14:42.080Z,1.50
2023-03-10T05:17:09.391Z,1.58
2023-03-10T05:19:37.097Z,1.10
2023-03-10T05:22:05.919Z,1.73
2023-03-10T05:24:34.754Z,1.60
2023-03-10T05:27:04.269Z,2.55
2023-03-10T05:29:31.733Z,3.55
2023-03-10T05:32:08.446Z,1.67
2023-03-10T05:34:38.850Z,1.52
2023-03-10T05:37:06.061Z,4.43
2023-03-10T05:39:33.618Z,1.50
2023-03-10T05:42:04.173Z,3.45
2023-03-10T05:44:33.653Z,2.78
2023-03-10T05:47:02.586Z,1.67
2023-03-10T05:49:30.776Z,1.45
2023-03-10T05:51:58.505Z,3.05
2023-03-10T05:54:25.631Z,2.60
2023-03-10T05:56:52.403Z,1.83
2023-03-10T05:59:22.058Z,0.85
2023-03-10T06:01:50.126Z,2.08
2023-03-10T06:04:17.053Z,3.50
2023-03-10T06:06:43.981Z,3.90
2023-03-10T06:09:10.828Z,2.65
2023-03-10T06:11:37.709Z,4.32
2023-03-10T06:14:04.608Z,3.10
2023-03-10T06:16:31.516Z,2.78
2023-03-10T06:18:58.603Z,2.00
2023-03-10T06:21:26.070Z,3.00
2023-03-10T06:23:52.888Z,2.53
2023-03-10T06:26:19.918Z,3.17
2023-03-10T06:28:46.999Z,2.25
2023-03-10T06:31:21.229Z,3.38
2023-03-10T06:33:48.572Z,4.18
2023-03-10T06:36:16.789Z,1.40
2023-03-10T06:38:43.790Z,1.40
2023-03-10T06:41:11.404Z,1.48
2023-03-10T06:43:38.678Z,1.05
2023-03-10T06:46:09.185Z,1.40
2023-03-10T06:48:37.237Z,1.65
2023-03-10T06:51:14.351Z,1.13
2023-03-10T06:53:41.397Z,0.68
2023-03-10T06:56:16.893Z,0.75
2023-03-10T06:58:45.204Z,1.60
2023-03-10T07:01:29.533Z,0.60
2023-03-10T07:03:57.436Z,0.70
2023-03-10T07:06:25.849Z,0.15
2023-03-10T07:08:54.212Z,1.08
2023-03-10T07:11:22.756Z,0.60
2023-03-10T07:13:49.825Z,0.65
2023-03-10T07:16:17.407Z,0.68
2023-03-10T07:18:44.962Z,0.60
2023-03-10T07:21:16.254Z,0.52
2023-03-10T07:23:43.137Z,1.02
2023-03-10T07:26:10.646Z,2.28
2023-03-10T07:28:38.213Z,2.17
2023-03-10T07:31:08.044Z,0.95
2023-03-10T07:33:35.631Z,1.25
2023-03-10T07:36:12.911Z,0.40
2023-03-10T07:38:40.044Z,2.35
2023-03-10T07:41:19.440Z,1.88
2023-03-10T07:43:46.264Z,0.65
2023-03-10T07:46:15.154Z,1.95
2023-03-10T07:48:43.112Z,3.80
2023-03-10T07:51:12.373Z,2.33
2023-03-10T07:53:39.282Z,1.05
2023-03-10T07:56:08.462Z,1.80
2023-03-10T07:58:35.909Z,0.73
2023-03-10T08:01:03.720Z,2.55
2023-03-10T08:03:30.749Z,1.88
2023-03-10T08:05:59.574Z,2.08
2023-03-10T08:08:27.186Z,2.13
2023-03-10T08:11:10.433Z,2.17
2023-03-10T08:13:38.134Z,1.25
2023-03-10T08:16:05.687Z,2.83
2023-03-10T08:18:33.231Z,1.35
2023-03-10T08:21:03.860Z,0.80
2023-03-10T08:23:31.532Z,2.50
2023-03-10T08:26:02.480Z,2.50
2023-03-10T08:28:30.603Z,3.78
2023-03-10T08:31:04.945Z,2.92
2023-03-10T08:33:32.560Z,3.35
2023-03-10T08:36:08.609Z,3.45
2023-03-10T08:38:36.592Z,2.55
2023-03-10T08:41:22.625Z,2.25
2023-03-10T08:43:51.621Z,1.65
2023-03-10T08:46:21.784Z,2.30
2023-03-10T08:48:49.090Z,1.67
2023-03-10T08:51:16.751Z,2.38
2023-03-10T08:53:47.175Z,2.75
2023-03-10T08:56:15.453Z,1.92
2023-03-10T08:58:42.623Z,2.05
2023-03-10T09:01:09.868Z,3.50
2023-03-10T09:03:39.634Z,2.75
2023-03-10T09:06:07.029Z,2.97
2023-03-10T09:08:34.713Z,3.72
2023-03-10T09:11:03.042Z,3.30
2023-03-10T09:13:29.901Z,5.15
2023-03-10T09:15:56.723Z,2.65
2023-03-10T09:18:23.534Z,2.17
2023-03-10T09:20:50.573Z,3.08
2023-03-10T09:23:17.701Z,3.03
2023-03-10T09:25:44.569Z,2.25
2023-03-10T09:28:11.918Z,4.13
2023-03-10T09:30:41.257Z,3.65
2023-03-10T09:33:16.352Z,3.92
2023-03-10T09:35:48.385Z,3.85
2023-03-10T09:38:25.397Z,4.00
2023-03-10T09:41:38.410Z,2.28
2023-03-10T09:44:26.040Z,5.13
2023-03-10T09:47:52.065Z,4.75
2023-03-10T09:50:59.652Z,3.50
2023-03-10T09:54:07.784Z,2.20
2023-03-10T09:56:41.551Z,1.95
2023-03-10T09:59:26.522Z,1.58
2023-03-10T10:01:55.103Z,1.98
2023-03-10T10:08:54.917Z,2.78
2023-03-10T10:11:55.843Z,1.73
2023-03-10T10:18:21.476Z,1.25
2023-03-10T10:21:24.052Z,5.20
2023-03-10T10:24:18.495Z,2.67
2023-03-10T10:27:08.232Z,2.75
2023-03-10T10:32:45.495Z,2.80
2023-03-10T10:35:46.102Z,1.52
2023-03-10T10:38:59.758Z,2.50
2023-03-10T10:42:05.344Z,1.65
2023-03-10T10:45:24.783Z,3.63
2023-03-10T10:48:12.655Z,2.05
2023-03-10T10:51:07.690Z,3.30
2023-03-10T10:54:56.124Z,1.27
2023-03-10T11:04:28.800Z,1.40
2023-03-10T11:10:43.338Z,1.45
2023-03-10T11:13:43.430Z,1.90
2023-03-10T11:16:57.883Z,2.85
2023-03-10T11:20:59.601Z,1.17
2023-03-10T11:24:29.931Z,0.47
2023-03-10T11:28:06.714Z,1.83
2023-03-10T11:31:21.571Z,0.80
2023-03-10T11:34:48.429Z,0.95
2023-03-10T11:38:03.057Z,0.95
2023-03-10T11:41:17.349Z,1.38
2023-03-10T11:44:50.301Z,0.68
2023-03-10T12:31:47.407Z,0.52
2023-03-10T12:34:54.901Z,0.60
2023-03-10T12:37:56.990Z,0.57
2023-03-10T12:41:04.552Z,0.85
2023-03-10T12:44:35.076Z,2.55
2023-03-10T12:48:36.056Z,1.08
2023-03-10T12:51:39.512Z,0.90
2023-03-10T12:55:25.176Z,0.88
2023-03-10T12:58:35.663Z,0.20
2023-03-10T13:01:43.257Z,0.45
2023-03-10T13:04:50.067Z,1.58
2023-03-10T13:13:50.504Z,0.20
2023-03-10T13:19:30.668Z,0.10
2023-03-10T13:22:19.573Z,0.75
2023-03-10T13:25:15.677Z,0.47
2023-03-10T13:28:08.960Z,0.52
2023-03-10T13:33:54.044Z,0.30
2023-03-10T13:39:54.880Z,0.20
2023-03-10T13:48:53.426Z,0.13
2023-03-10T13:51:42.889Z,0.20
2023-03-10T13:57:41.949Z,0.10
2023-03-10T14:00:57.457Z,0.20
2023-03-10T14:03:40.767Z,0.10
2023-03-10T14:06:30.208Z,0.10
2023-03-10T14:10:01.902Z,0.20
2023-03-10T14:12:50.377Z,1.27
2023-03-10T14:15:22.381Z,0.30
2023-03-10T14:18:07.099Z,0.35
2023-03-10T14:20:39.137Z,0.10
2023-03-10T14:23:23.382Z,0.68
2023-03-10T14:25:53.402Z,0.17
2023-03-10T14:30:55.594Z,0.60
2023-03-10T14:33:22.747Z,0.10
2023-03-10T14:35:52.745Z,0.10
2023-03-10T14:38:19.790Z,0.15
2023-03-10T14:40:50.160Z,0.28
2023-03-10T14:43:36.262Z,0.10
2023-03-10T14:46:05.129Z,0.10
2023-03-10T14:48:36.337Z,0.55
2023-03-10T14:51:03.226Z,0.38
2023-03-10T14:53:31.746Z,0.43
2023-03-10T14:56:01.946Z,0.80
2023-03-10T14:58:33.585Z,0.40
2023-03-10T15:01:01.195Z,0.25
2023-03-10T15:03:28.233Z,1.75
2023-03-10T15:05:55.075Z,0.10
2023-03-10T15:08:21.932Z,0.30
2023-03-10T15:10:51.061Z,0.73
2023-03-10T15:13:24.172Z,0.13
2023-03-10T15:15:51.714Z,0.60
2023-03-10T15:18:24.299Z,0.20
2023-03-10T15:20:51.161Z,0.15
2023-03-10T15:23:20.026Z,0.20
2023-03-10T15:25:47.300Z,0.22
2023-03-10T15:28:14.423Z,0.65
2023-03-10T15:30:41.292Z,0.65
2023-03-10T15:33:08.138Z,3.90
2023-03-10T15:35:35.143Z,2.10
2023-03-10T15:38:02.585Z,2.38
2023-03-10T15:40:32.304Z,1.98
2023-03-10T15:42:59.927Z,3.97
2023-03-10T15:45:29.646Z,2.60
2023-03-10T15:47:57.142Z,4.75
2023-03-10T15:50:24.365Z,4.07
2023-03-10T15:52:56.898Z,2.03
2023-03-10T15:55:25.279Z,8.10
2023-03-10T15:57:52.988Z,5.10
2023-03-10T16:00:22.833Z,2.90
2023-03-10T16:02:50.657Z,2.35
2023-03-10T16:05:18.157Z,4.50
2023-03-10T16:07:45.108Z,4.00
2023-03-10T16:10:15.290Z,6.93
2023-03-10T16:12:42.087Z,4.32
2023-03-10T16:15:10.073Z,5.80
2023-03-10T16:17:36.900Z,7.93
2023-03-10T16:20:10.295Z,3.47
2023-03-10T16:22:40.477Z,4.55
2023-03-10T16:25:11.836Z,2.95
2023-03-10T16:27:39.962Z,7.10
2023-03-10T16:30:09.021Z,5.53
2023-03-10T16:32:35.950Z,6.32
2023-03-10T16:35:02.819Z,5.78
2023-03-10T16:37:29.973Z,6.03
2023-03-10T16:39:57.721Z,5.72
2023-03-10T16:42:26.366Z,4.75
2023-03-10T16:44:56.846Z,5.93
2023-03-10T16:47:23.878Z,4.95
2023-03-10T16:49:50.708Z,10.80
2023-03-10T16:52:17.521Z,4.57
2023-03-10T16:54:46.438Z,5.28
2023-03-10T16:57:14.951Z,5.50
2023-03-10T16:59:44.586Z,3.83
2023-03-10T17:02:17.544Z,5.65
2023-03-10T17:04:45.368Z,5.10
2023-03-10T17:07:12.511Z,5.07
2023-03-10T17:09:39.437Z,5.40
2023-03-10T17:12:06.964Z,3.95
2023-03-10T17:14:33.870Z,6.25
2023-03-10T17:17:01.413Z,4.90
2023-03-10T17:19:30.996Z,5.15
2023-03-10T17:21:58.560Z,4.75
2023-03-10T17:24:25.978Z,4.95
2023-03-10T17:26:53.337Z,6.07
2023-03-10T17:29:20.269Z,5.93
2023-03-10T17:31:51.345Z,7.00
2023-03-10T17:34:19.277Z,5.60
2023-03-10T17:36:50.295Z,6.03
2023-03-10T17:39:22.983Z,6.82
2023-03-10T17:41:49.867Z,4.82
2023-03-10T17:44:17.009Z,6.28
2023-03-10T17:46:43.824Z,8.07
2023-03-10T17:49:14.982Z,5.05
2023-03-10T17:51:44.670Z,3.45
2023-03-10T17:54:15.572Z,8.73
2023-03-10T17:56:42.467Z,5.18
2023-03-10T17:59:14.010Z,4.63
2023-03-10T18:01:43.523Z,6.85
2023-03-10T18:04:10.997Z,3.10
2023-03-10T18:06:37.884Z,4.30
2023-03-10T18:09:08.786Z,7.90
2023-03-10T18:11:35.626Z,5.57
2023-03-10T18:14:03.884Z,6.10
2023-03-10T18:16:34.792Z,3.28
2023-03-10T18:19:02.062Z,4.60
2023-03-10T18:21:28.904Z,4.45
2023-03-10T18:23:56.235Z,3.05
2023-03-10T18:26:27.606Z,4.75
2023-03-10T18:28:54.524Z,2.08
2023-03-10T18:31:25.349Z,5.20
2023-03-10T18:33:52.538Z,2.25
2023-03-10T18:36:21.118Z,1.58
2023-03-10T18:38:48.510Z,2.13
2023-03-10T18:41:19.847Z,4.35
2023-03-10T18:43:47.075Z,2.95
2023-03-10T18:46:14.081Z,7.50
2023-03-10T18:48:40.956Z,4.78
2023-03-10T18:51:08.376Z,2.45
2023-03-10T18:53:35.265Z,1.88
2023-03-10T18:56:02.126Z,4.65
2023-03-10T18:58:29.795Z,2.83
2023-03-10T19:00:58.042Z,3.95
2023-03-10T19:03:28.165Z,3.40
2023-03-10T19:05:55.149Z,3.42
2023-03-10T19:08:25.587Z,5.45
2023-03-10T19:11:00.241Z,1.73
2023-03-10T19:13:29.784Z,2.60
2023-03-10T19:15:57.168Z,2.63
2023-03-10T19:18:25.076Z,3.85
2023-03-10T19:20:58.664Z,2.72
2023-03-10T19:23:26.358Z,2.13
2023-03-10T19:25:53.770Z,2.30
2023-03-10T19:28:20.760Z,2.15
2023-03-10T19:30:47.852Z,2.35
2023-03-10T19:33:14.677Z,2.83
2023-03-10T19:35:42.559Z,1.90
2023-03-10T19:38:09.413Z,1.60
2023-03-10T19:40:36.835Z,1.50
2023-03-10T19:43:03.935Z,2.22
2023-03-10T19:45:30.965Z,1.38
2023-03-10T19:47:58.653Z,3.97
2023-03-10T19:50:26.126Z,1.90
2023-03-10T19:52:53.118Z,3.00
2023-03-10T19:55:23.884Z,2.17
2023-03-10T19:57:53.468Z,1.23
2023-03-10T20:00:30.668Z,1.58
2023-03-10T20:02:58.322Z,4.15
2023-03-10T20:05:26.724Z,1.15
2023-03-10T20:07:53.636Z,1.65
2023-03-10T20:10:20.638Z,1.55
2023-03-10T20:12:48.463Z,2.67
2023-03-10T20:15:16.993Z,1.73
2023-03-10T20:17:43.968Z,5.28
2023-03-10T20:20:15.040Z,1.58
2023-03-10T20:25:15.237Z,1.60
2023-03-10T20:27:42.390Z,1.90
2023-03-10T20:30:18.016Z,2.17
2023-03-10T20:32:45.273Z,2.95
2023-03-10T20:35:14.187Z,1.50
2023-03-10T20:37:41.957Z,0.75
2023-03-10T20:40:13.254Z,1.13
2023-03-10T20:42:40.267Z,1.60
2023-03-10T20:45:10.763Z,1.02
2023-03-10T20:47:38.213Z,1.58
2023-03-10T20:50:09.696Z,1.13
2023-03-10T20:52:39.704Z,1.52
2023-03-10T20:55:08.322Z,4.35
2023-03-10T20:57:35.219Z,2.10
2023-03-10T21:00:02.686Z,2.05
2023-03-10T21:02:29.523Z,5.13
2023-03-10T21:04:56.348Z,1.23
2023-03-10T21:07:23.205Z,2.28
2023-03-10T21:09:50.246Z,2.28
2023-03-10T21:12:18.576Z,1.77
2023-03-10T21:14:46.164Z,1.83
2023-03-10T21:17:13.041Z,1.67
2023-03-10T21:19:39.942Z,1.60
2023-03-10T21:22:06.947Z,1.38
2023-03-10T21:24:34.162Z,1.55
2023-03-10T21:27:01.123Z,1.50
2023-03-10T21:29:27.991Z,2.47
2023-03-10T21:31:54.849Z,1.58
2023-03-10T21:34:21.731Z,1.40
2023-03-10T21:36:48.645Z,1.98
2023-03-10T21:39:15.510Z,3.38
2023-03-10T21:41:42.411Z,1.90
2023-03-10T21:44:10.520Z,1.60
2023-03-10T21:46:37.428Z,1.63
2023-03-10T21:49:04.464Z,1.98
2023-03-10T21:51:33.868Z,2.30
2023-03-10T21:54:01.476Z,2.25
2023-03-10T21:56:28.901Z,2.85
2023-03-10T21:58:56.723Z,1.90
2023-03-10T22:01:25.865Z,1.92
2023-03-10T22:03:53.458Z,1.85
2023-03-10T22:06:20.631Z,2.40
2023-03-10T22:08:47.576Z,2.58
2023-03-10T22:11:14.858Z,1.50
2023-03-10T22:13:42.427Z,2.47
2023-03-10T22:16:16.461Z,2.35
2023-03-10T22:18:44.513Z,1.70
2023-03-10T22:21:11.777Z,2.55
2023-03-10T22:23:38.579Z,2.25
2023-03-10T22:26:05.428Z,1.70
2023-03-10T22:28:32.800Z,3.47
2023-03-10T22:30:59.676Z,1.77
2023-03-10T22:33:26.506Z,1.95
2023-03-10T22:35:53.340Z,1.98
2023-03-10T22:38:20.483Z,3.00
2023-03-10T22:40:48.276Z,2.13
2023-03-10T22:43:15.351Z,2.15
2023-03-10T22:45:42.358Z,1.88
2023-03-10T22:48:09.395Z,2.50
2023-03-10T22:50:40.847Z,2.47
2023-03-10T22:53:14.402Z,2.75
2023-03-10T22:55:43.431Z,2.25
2023-03-10T22:58:11.100Z,2.17
2023-03-10T23:00:39.668Z,1.77
2023-03-10T23:03:07.461Z,2.17
2023-03-10T23:05:34.353Z,1.38
2023-03-10T23:08:01.178Z,2.30
2023-03-10T23:10:33.735Z,1.13
2023-03-10T23:13:04.600Z,1.02
2023-03-10T23:15:35.650Z,1.77
2023-03-10T23:18:02.564Z,2.13
2023-03-10T23:20:36.260Z,1.85
2023-03-10T23:23:05.910Z,2.88
2023-03-10T23:25:39.261Z,1.35
2023-03-10T23:28:08.600Z,1.77
2023-03-10T23:30:38.474Z,1.15
2023-03-10T23:33:07.277Z,3.58
2023-03-10T23:35:35.527Z,2.15
2023-03-10T23:38:04.676Z,1.92
2023-03-10T23:40:33.699Z,3.90
2023-03-10T23:43:02.725Z,1.67
2023-03-10T23:45:32.130Z,2.40
2023-03-10T23:48:01.379Z,1.48
2023-03-10T23:50:34.010Z,2.65
2023-03-10T23:53:02.070Z,1.08
2023-03-10T23:55:34.112Z,1.98
2023-03-10T23:58:01.914Z,1.42
